Time;durP1;ratioP1;P1;durP2;ratioP2;P2;SDS_P1;SDS_P2;PMS_P1;PMS_P2;Temp;Humidity;BMP_temperature;BMP_pressure;BME280_temperature;BME280_humidity;BME280_pressure;Samples;Min_cycle;Max_cycle;Signal;HPM_P1;HPM_P2
2022/05/15 00:01:33;;;;;;;9.35;5.80;;;;;;;15.01;63.01;100623.53;4976006;28;20045;-79
2022/05/15 00:04:00;;;;;;;12.48;5.80;;;;;;;15.07;63.42;100627.25;4974995;28;20480;-78
2022/05/15 00:06:26;;;;;;;8.60;5.43;;;;;;;15.07;63.65;100630.13;4983572;28;20062;-78
2022/05/15 00:08:51;;;;;;;10.82;5.72;;;;;;;15.03;63.26;100625.91;4984819;28;20023;-78
2022/05/15 00:11:17;;;;;;;10.40;5.72;;;;;;;15.11;62.84;100639.31;4978483;28;20139;-80
2022/05/15 00:13:44;;;;;;;8.60;6.18;;;;;;;15.11;63.44;100632.78;4974833;28;20065;-80
2022/05/15 00:16:10;;;;;;;14.90;6.32;;;;;;;15.14;62.68;100637.53;4976056;28;20045;-80
2022/05/15 00:18:38;;;;;;;8.05;5.88;;;;;;;15.20;62.37;100641.22;4975361;28;20039;-79
2022/05/15 00:21:13;;;;;;;9.23;5.75;;;;;;;15.22;62.77;100632.13;4958902;28;20097;-80
2022/05/15 00:23:40;;;;;;;17.63;6.72;;;;;;;15.25;61.97;100636.84;4974730;28;20030;-79
2022/05/15 00:26:05;;;;;;;11.25;6.70;;;;;;;15.23;62.47;100631.63;4958397;28;20038;-78
2022/05/15 00:28:34;;;;;;;12.68;6.20;;;;;;;15.33;61.92;100640.88;4974839;28;20077;-78
2022/05/15 00:31:00;;;;;;;10.18;5.85;;;;;;;15.34;61.92;100639.59;4975734;28;20121;-81
2022/05/15 00:33:27;;;;;;;10.02;5.65;;;;;;;15.40;61.42;100640.41;4974496;28;20381;-79
2022/05/15 00:35:53;;;;;;;9.55;6.20;;;;;;;15.39;61.34;100638.88;4975953;28;20049;-80
2022/05/15 00:38:19;;;;;;;8.65;5.53;;;;;;;15.44;61.16;100638.13;4974806;28;20039;-79
2022/05/15 00:40:47;;;;;;;7.65;4.93;;;;;;;15.41;61.02;100642.78;4975621;28;20038;-79
2022/05/15 00:43:34;;;;;;;12.93;5.82;;;;;;;15.47;61.13;100646.53;4958058;28;20045;-80
2022/05/15 00:46:02;;;;;;;9.60;5.03;;;;;;;15.49;60.42;100646.78;4975584;28;20377;-79
2022/05/15 00:48:28;;;;;;;8.65;4.82;;;;;;;15.53;60.68;100646.63;4974320;28;20038;-79
2022/05/15 00:50:53;;;;;;;15.82;5.40;;;;;;;15.54;60.63;100646.09;4974324;28;20510;-80
2022/05/15 00:53:21;;;;;;;8.35;5.00;;;;;;;15.55;60.25;100649.75;4974926;28;20468;-80
2022/05/15 00:55:51;;;;;;;6.32;3.95;;;;;;;15.58;59.86;100645.91;4981285;28;20046;-80
2022/05/15 00:58:29;;;;;;;8.75;4.40;;;;;;;15.62;59.87;100651.41;4994787;28;20038;-80
2022/05/15 01:00:56;;;;;;;7.53;3.75;;;;;;;15.65;58.92;100653.25;4977357;28;20481;-78
2022/05/15 01:03:22;;;;;;;4.40;3.22;;;;;;;15.62;58.07;100642.78;4977330;28;20053;-79
2022/05/15 01:05:53;;;;;;;8.98;2.58;;;;;;;15.75;57.42;100651.78;4976926;28;20061;-78
2022/05/15 01:08:20;;;;;;;9.13;2.60;;;;;;;15.78;57.40;100659.41;4977480;28;20042;-78
2022/05/15 01:10:49;;;;;;;6.15;1.98;;;;;;;15.82;57.20;100655.03;4961901;28;20030;-77
2022/05/15 01:13:17;;;;;;;6.15;2.13;;;;;;;15.88;56.84;100655.88;4961223;28;20049;-80
2022/05/15 01:15:44;;;;;;;3.38;2.38;;;;;;;15.87;56.90;100650.63;4960834;28;20505;-79
2022/05/15 01:18:11;;;;;;;3.63;2.50;;;;;;;15.85;56.85;100647.47;4977556;28;20069;-79
2022/05/15 01:20:38;;;;;;;3.83;2.08;;;;;;;15.89;56.64;100654.56;4994839;28;20034;-79
2022/05/15 01:23:05;;;;;;;7.15;2.63;;;;;;;15.89;56.53;100662.38;4977529;28;20080;-80
2022/05/15 01:25:34;;;;;;;5.53;2.33;;;;;;;15.85;56.82;100647.47;4977415;28;20026;-79
2022/05/15 01:28:20;;;;;;;5.47;2.03;;;;;;;15.84;57.21;100655.28;4994639;28;20041;-80
2022/05/15 01:30:50;;;;;;;4.75;2.10;;;;;;;15.83;57.08;100658.69;4976926;28;20042;-80
2022/05/15 01:33:15;;;;;;;4.28;1.77;;;;;;;15.82;56.72;100662.84;4974186;28;20034;-80
2022/05/15 01:35:42;;;;;;;4.15;1.92;;;;;;;15.77;57.14;100661.50;4993813;28;20454;-78
2022/05/15 01:38:09;;;;;;;5.63;1.98;;;;;;;15.79;56.94;100658.09;4960873;28;20125;-80
2022/05/15 01:40:38;;;;;;;5.97;2.58;;;;;;;15.73;56.94;100651.53;4961049;28;20030;-79
2022/05/15 01:43:12;;;;;;;6.57;2.95;;;;;;;15.74;57.20;100656.75;4977078;28;20066;-79
2022/05/15 01:45:39;;;;;;;6.50;2.20;;;;;;;15.74;57.01;100656.75;4994255;28;20084;-79
2022/05/15 01:48:05;;;;;;;4.25;2.15;;;;;;;15.71;57.36;100662.72;4993984;28;20553;-79
2022/05/15 01:50:31;;;;;;;4.60;2.15;;;;;;;15.70;57.15;100661.13;4976844;28;20026;-78
2022/05/15 01:52:57;;;;;;;4.18;2.30;;;;;;;15.66;57.49;100661.38;4977153;28;20030;-78
2022/05/15 01:55:23;;;;;;;8.60;2.80;;;;;;;15.57;57.92;100652.13;4960276;28;20055;-78
2022/05/15 01:57:50;;;;;;;6.47;2.30;;;;;;;15.54;57.95;100654.72;4994498;28;20125;-79
2022/05/15 02:00:19;;;;;;;3.80;2.30;;;;;;;15.48;58.11;100655.94;4994306;28;20030;-79
2022/05/15 02:02:45;;;;;;;11.63;2.30;;;;;;;15.41;57.85;100659.22;4961203;28;20031;-79
2022/05/15 02:05:11;;;;;;;6.85;2.70;;;;;;;15.18;58.57;100643.03;4979180;28;20034;-80
2022/05/15 02:07:37;;;;;;;6.00;2.60;;;;;;;15.29;58.66;100666.94;4980744;28;20065;-79
2022/05/15 02:10:05;;;;;;;8.20;2.30;;;;;;;15.25;58.83;100660.59;4964424;28;20066;-80
2022/05/15 02:12:31;;;;;;;7.30;2.60;;;;;;;15.22;59.01;100663.69;4980461;28;20488;-80
2022/05/15 02:14:57;;;;;;;8.00;2.67;;;;;;;15.20;58.98;100669.13;4980355;28;20070;-80
2022/05/15 02:17:23;;;;;;;8.38;2.95;;;;;;;15.12;59.01;100658.09;4997906;28;20507;-80
2022/05/15 02:19:49;;;;;;;10.45;3.72;;;;;;;15.17;59.63;100664.41;4997973;28;20034;-79
2022/05/15 02:22:15;;;;;;;7.82;4.32;;;;;;;15.11;59.46;100668.00;4997932;28;20026;-80
2022/05/15 02:24:41;;;;;;;8.85;2.90;;;;;;;15.08;59.24;100659.63;4998178;28;20495;-79
2022/05/15 02:27:07;;;;;;;8.82;3.00;;;;;;;15.10;59.77;100675.03;4983218;28;20034;-78
2022/05/15 02:29:33;;;;;;;10.15;3.33;;;;;;;15.06;59.89;100673.66;5019390;28;20041;-78
2022/05/15 02:31:59;;;;;;;6.15;3.33;;;;;;;15.03;59.76;100677.53;5002774;28;20034;-79
2022/05/15 02:34:24;;;;;;;10.25;3.15;;;;;;;14.95;59.92;100673.50;4999714;28;20132;-78
2022/05/15 02:36:50;;;;;;;8.43;3.47;;;;;;;14.93;60.23;100678.97;5015272;28;20031;-79
2022/05/15 02:39:16;;;;;;;4.03;2.85;;;;;;;14.87;60.00;100681.75;5000481;28;20029;-78
2022/05/15 02:41:41;;;;;;;5.90;3.05;;;;;;;14.74;61.50;100672.72;5000725;28;20097;-78
2022/05/15 02:44:08;;;;;;;6.18;3.08;;;;;;;14.66;62.68;100672.31;5004392;28;20030;-79
2022/05/15 02:46:34;;;;;;;7.28;3.40;;;;;;;14.60;62.83;100685.78;4964697;28;20507;-78
2022/05/15 02:51:45;;;;;;;5.13;3.20;;;;;;;14.37;63.06;100683.06;4982343;28;20100;-78
2022/05/15 02:54:11;;;;;;;8.55;2.63;;;;;;;14.26;63.08;100680.75;4997181;28;20446;-79
2022/05/15 02:56:37;;;;;;;8.05;2.92;;;;;;;14.26;62.88;100690.16;4975827;28;20137;-79
2022/05/15 02:59:11;;;;;;;6.35;3.05;;;;;;;14.24;63.52;100689.88;4976016;28;20027;-78
2022/05/15 03:01:38;;;;;;;4.22;2.42;;;;;;;14.21;63.32;100679.38;4976228;28;20066;-79
2022/05/15 03:04:04;;;;;;;7.53;2.75;;;;;;;14.22;63.27;100700.22;4977562;28;20033;-79
2022/05/15 03:06:32;;;;;;;6.43;2.13;;;;;;;14.21;63.27;100699.44;4959941;28;20037;-78
2022/05/15 03:08:57;;;;;;;6.90;2.83;;;;;;;14.18;63.64;100700.44;4959999;28;20034;-80
2022/05/15 03:11:23;;;;;;;4.93;2.65;;;;;;;14.04;64.05;100680.41;4976071;28;20498;-79
2022/05/15 03:13:49;;;;;;;6.05;2.72;;;;;;;14.14;63.99;100699.06;4975947;28;20392;-79
2022/05/15 03:16:18;;;;;;;6.32;2.70;;;;;;;14.16;64.50;100714.47;4976773;28;20030;-79
2022/05/15 03:18:47;;;;;;;6.55;2.78;;;;;;;14.16;64.61;100714.47;4975007;28;20034;-78
2022/05/15 03:21:28;;;;;;;7.32;3.72;;;;;;;14.11;65.59;100700.81;4975723;28;20177;-78
2022/05/15 03:24:01;;;;;;;7.38;3.28;;;;;;;14.10;68.50;100710.72;4976734;28;20498;-78
2022/05/15 03:26:28;;;;;;;7.47;4.28;;;;;;;14.08;67.48;100712.50;4977001;28;20039;-78
2022/05/15 03:28:54;;;;;;;7.93;4.90;;;;;;;14.10;67.35;100715.66;4976756;28;20380;-79
2022/05/15 03:31:21;;;;;;;4.95;3.35;;;;;;;14.11;68.00;100715.16;4959173;28;20034;-79
2022/05/15 03:33:47;;;;;;;7.47;4.20;;;;;;;14.14;67.45;100716.25;4959570;28;20046;-79
2022/05/15 03:36:14;;;;;;;11.32;4.28;;;;;;;14.17;68.00;100718.13;4976917;28;20030;-78
2022/05/15 03:38:42;;;;;;;6.75;3.63;;;;;;;14.19;68.06;100719.22;4975333;28;20074;-80
2022/05/15 03:41:09;;;;;;;6.50;4.00;;;;;;;14.25;68.00;100727.91;4975372;28;20063;-78
2022/05/15 03:43:35;;;;;;;6.88;3.75;;;;;;;14.30;67.74;100726.44;4976781;28;20031;-78
2022/05/15 03:46:02;;;;;;;9.82;3.83;;;;;;;14.34;67.42;100724.94;4959402;28;20088;-79
2022/05/15 03:48:27;;;;;;;6.28;4.05;;;;;;;14.41;67.07;100733.16;4976682;28;20041;-79
2022/05/15 03:50:53;;;;;;;7.13;3.92;;;;;;;14.46;67.26;100731.66;4959344;28;20527;-79
2022/05/15 03:53:18;;;;;;;9.68;4.03;;;;;;;14.55;67.37;100735.22;4974680;28;20049;-79
2022/05/15 03:55:45;;;;;;;4.57;4.05;;;;;;;14.42;66.96;100699.56;4981963;28;20042;-80
2022/05/15 03:58:11;;;;;;;8.32;4.15;;;;;;;14.63;66.98;100730.66;4962263;28;20037;-78
2022/05/15 04:00:37;;;;;;;7.35;4.15;;;;;;;14.69;67.57;100737.28;4995518;28;20031;-78
2022/05/15 04:03:03;;;;;;;12.00;4.15;;;;;;;14.77;66.29;100736.88;4995408;28;20038;-78
2022/05/15 04:05:28;;;;;;;8.25;3.63;;;;;;;14.83;66.06;100726.28;4995885;28;20018;-78
2022/05/15 04:07:56;;;;;;;9.88;4.10;;;;;;;14.94;65.64;100732.97;4978776;28;20460;-77
2022/05/15 04:10:23;;;;;;;11.13;3.80;;;;;;;15.11;65.74;100736.06;4995601;28;20054;-78
2022/05/15 04:12:50;;;;;;;6.18;3.67;;;;;;;15.21;64.82;100731.78;4978245;28;20042;-79
2022/05/15 04:15:16;;;;;;;9.48;4.07;;;;;;;15.42;64.16;100742.00;4977868;28;20030;-79
2022/05/15 04:17:45;;;;;;;7.68;3.40;;;;;;;15.50;63.87;100740.25;4980568;28;20121;-79
2022/05/15 04:20:14;;;;;;;7.85;4.00;;;;;;;15.59;63.32;100741.44;5002759;28;20053;-79
2022/05/15 04:22:41;;;;;;;11.88;4.20;;;;;;;15.61;62.32;100750.31;4983535;28;20038;-80
2022/05/15 04:25:07;;;;;;;8.15;3.47;;;;;;;15.59;62.40;100750.81;4995439;28;20032;-80
2022/05/15 04:27:33;;;;;;;4.63;3.95;;;;;;;15.58;62.69;100755.00;4977418;28;20509;-80
2022/05/15 04:29:58;;;;;;;5.35;3.08;;;;;;;15.58;61.80;100748.47;4978662;28;20030;-78
2022/05/15 04:32:24;;;;;;;5.20;3.05;;;;;;;15.73;61.88;100760.69;4995489;28;20054;-77
2022/05/15 04:34:50;;;;;;;11.65;3.30;;;;;;;15.80;61.05;100760.22;4995958;28;20041;-78
2022/05/15 04:37:16;;;;;;;5.57;2.92;;;;;;;15.89;60.83;100765.81;4995646;28;20397;-80
2022/05/15 04:39:41;;;;;;;6.32;2.78;;;;;;;15.92;60.18;100767.69;4995059;28;20046;-79
2022/05/15 04:42:08;;;;;;;5.97;2.92;;;;;;;15.78;59.89;100749.25;4995561;28;20412;-80
2022/05/15 04:44:33;;;;;;;6.68;2.97;;;;;;;15.91;59.48;100777.59;4994937;28;20026;-79
2022/05/15 04:47:00;;;;;;;8.13;2.78;;;;;;;15.88;59.01;100775.75;4994827;28;20498;-78
2022/05/15 04:49:25;;;;;;;5.97;2.63;;;;;;;15.86;59.37;100781.19;4995241;28;20525;-79
2022/05/15 04:51:51;;;;;;;7.00;3.05;;;;;;;15.82;59.76;100777.75;4995666;28;20030;-79
2022/05/15 04:54:16;;;;;;;5.57;2.72;;;;;;;15.87;59.45;100785.66;4995237;28;20034;-79
2022/05/15 04:56:44;;;;;;;6.38;2.72;;;;;;;15.92;59.08;100779.19;4994948;28;20093;-79
2022/05/15 04:59:10;;;;;;;2.85;2.35;;;;;;;15.94;59.19;100790.94;4994968;28;20045;-77
2022/05/15 05:01:35;;;;;;;4.57;2.38;;;;;;;15.93;59.10;100783.63;4995036;28;20085;-78
2022/05/15 05:04:01;;;;;;;5.28;3.03;;;;;;;16.03;58.78;100787.94;4977357;28;20066;-78
2022/05/15 05:06:28;;;;;;;5.78;2.65;;;;;;;16.10;58.49;100789.56;4994592;28;20050;-78
2022/05/15 05:08:55;;;;;;;5.57;2.75;;;;;;;16.05;57.67;100782.47;4977134;28;20475;-78
2022/05/15 05:11:20;;;;;;;3.30;2.10;;;;;;;16.06;56.53;100798.41;4994369;28;20026;-78
2022/05/15 05:13:46;;;;;;;7.97;2.25;;;;;;;16.02;56.62;100782.69;4994358;28;20032;-79
2022/05/15 05:16:12;;;;;;;6.38;2.25;;;;;;;16.08;55.66;100795.84;4994291;28;20026;-79
2022/05/15 05:18:38;;;;;;;4.97;1.80;;;;;;;16.13;55.67;100792.22;4994854;28;20393;-79
2022/05/15 05:21:04;;;;;;;4.30;1.75;;;;;;;16.19;55.62;100798.81;4976906;28;20038;-79
2022/05/15 05:23:31;;;;;;;4.00;1.60;;;;;;;16.22;55.06;100808.50;4945102;28;20412;-81
2022/05/15 05:25:56;;;;;;;4.88;1.80;;;;;;;16.12;54.45;100784.91;4977522;28;20034;-80
2022/05/15 05:28:22;;;;;;;2.53;1.48;;;;;;;16.30;52.68;100804.69;4976848;28;20459;-80
2022/05/15 05:30:48;;;;;;;4.70;1.88;;;;;;;16.20;53.57;100805.34;4961513;28;20034;-79
2022/05/15 05:33:14;;;;;;;2.92;1.77;;;;;;;16.27;53.94;100820.06;4994389;28;20475;-79
2022/05/15 05:35:40;;;;;;;5.65;2.05;;;;;;;16.30;52.98;100819.06;4998777;28;20387;-80
2022/05/15 05:38:07;;;;;;;2.72;1.48;;;;;;;16.28;52.66;100815.13;4966136;28;20034;-80
2022/05/15 05:40:33;;;;;;;6.45;1.50;;;;;;;16.37;53.22;100814.94;4985604;28;20391;-79
2022/05/15 05:43:00;;;;;;;4.35;1.52;;;;;;;16.46;51.97;100811.91;4987014;28;20030;-79
2022/05/15 05:45:25;;;;;;;3.25;1.73;;;;;;;16.55;52.20;100813.81;5001365;28;20109;-79
2022/05/15 05:47:51;;;;;;;3.92;1.73;;;;;;;16.64;52.00;100825.16;4967322;28;20072;-81
2022/05/15 05:50:18;;;;;;;2.47;1.70;;;;;;;16.71;50.86;100824.72;4981732;28;20114;-81
2022/05/15 05:52:45;;;;;;;3.55;1.33;;;;;;;16.86;51.34;100819.63;4983361;28;20034;-81
2022/05/15 05:55:14;;;;;;;4.72;1.88;;;;;;;17.01;50.66;100820.28;4951380;28;20030;-81
2022/05/15 05:57:43;;;;;;;5.05;2.35;;;;;;;17.09;49.24;100827.13;4982708;28;20038;-83
2022/05/15 06:00:15;;;;;;;3.05;1.20;;;;;;;17.14;49.93;100817.75;4966073;28;20121;-82
2022/05/15 06:02:41;;;;;;;3.70;1.60;;;;;;;17.24;49.11;100833.53;4981452;28;20030;-83
2022/05/15 06:05:07;;;;;;;6.97;2.08;;;;;;;17.40;49.68;100832.06;4980713;28;20022;-84
2022/05/15 06:07:37;;;;;;;2.10;1.30;;;;;;;17.52;48.91;100830.81;4980577;28;20495;-85
2022/05/15 06:10:07;;;;;;;4.55;1.98;;;;;;;17.68;48.34;100826.47;4980428;28;20033;-85
2022/05/15 06:12:34;;;;;;;4.47;1.13;;;;;;;17.61;46.91;100812.59;4965252;28;20041;-82
2022/05/15 06:15:00;;;;;;;5.05;1.30;;;;;;;17.82;46.04;100821.81;4966074;28;20022;-84
2022/05/15 06:17:28;;;;;;;6.35;1.38;;;;;;;17.91;45.73;100833.91;4981119;28;20077;-86
2022/05/15 06:19:54;;;;;;;3.03;1.00;;;;;;;18.00;45.91;100819.31;4964645;28;20036;-84
2022/05/15 06:22:20;;;;;;;1.42;1.33;;;;;;;18.20;45.88;100820.41;4980587;28;20034;-83
2022/05/15 06:24:46;;;;;;;4.60;1.58;;;;;;;18.41;44.48;100830.41;4981014;28;20037;-83
2022/05/15 06:27:11;;;;;;;2.70;1.95;;;;;;;19.02;43.48;100833.41;4966405;28;20403;-81
2022/05/15 06:29:38;;;;;;;2.33;1.20;;;;;;;20.50;40.77;100823.25;5000989;28;20029;-83
2022/05/15 06:32:06;;;;;;;9.23;1.67;;;;;;;22.31;39.12;100823.28;5013522;28;20046;-80
2022/05/15 06:34:31;;;;;;;1.30;0.95;;;;;;;24.21;34.48;100812.03;5002650;28;20037;-80
2022/05/15 06:36:57;;;;;;;6.55;1.17;;;;;;;25.63;31.87;100822.06;5003386;28;20031;-82
2022/05/15 06:39:22;;;;;;;3.90;0.90;;;;;;;27.29;28.03;100824.06;4988969;28;20041;-83
2022/05/15 06:41:50;;;;;;;3.58;1.33;;;;;;;28.25;24.39;100823.00;5019051;28;20029;-77
2022/05/15 06:44:30;;;;;;;2.10;0.88;;;;;;;29.54;23.59;100820.06;4989501;28;20026;-77
2022/05/15 06:46:56;;;;;;;6.88;1.30;;;;;;;30.57;21.89;100813.44;5009932;28;20088;-80
2022/05/15 06:49:23;;;;;;;1.95;1.05;;;;;;;31.80;22.01;100824.84;4999367;28;20038;-82
2022/05/15 06:51:48;;;;;;;5.63;0.82;;;;;;;32.53;21.25;100829.09;4979347;28;20144;-80
2022/05/15 06:54:14;;;;;;;0.95;0.80;;;;;;;33.22;18.95;100827.56;4997058;28;20765;-78
2022/05/15 06:59:24;;;;;;;3.80;1.15;;;;;;;34.57;18.08;100831.19;4975807;28;20065;-79
2022/05/15 07:01:50;;;;;;;1.77;0.90;;;;;;;35.13;16.52;100839.31;4977372;28;20058;-79
2022/05/15 07:04:17;;;;;;;2.50;0.90;;;;;;;35.36;17.95;100835.66;4975726;28;20050;-78
2022/05/15 07:06:43;;;;;;;2.42;0.95;;;;;;;35.88;16.30;100841.16;4977010;28;20026;-78
2022/05/15 07:09:09;;;;;;;3.45;1.20;;;;;;;36.50;15.98;100834.56;4976489;28;20105;-79
2022/05/15 07:11:36;;;;;;;1.63;1.10;;;;;;;36.96;17.11;100831.34;4975711;28;20535;-79
2022/05/15 07:14:03;;;;;;;2.35;0.85;;;;;;;37.31;16.59;100834.09;4959785;28;20030;-77
2022/05/15 07:16:30;;;;;;;3.30;1.10;;;;;;;37.52;14.86;100833.03;4959594;28;20057;-76
2022/05/15 07:18:56;;;;;;;3.22;1.00;;;;;;;37.34;14.53;100826.84;4975951;28;20034;-76
2022/05/15 07:21:22;;;;;;;1.88;1.00;;;;;;;37.32;15.33;100817.03;4977729;28;20066;-78
2022/05/15 07:23:48;;;;;;;2.28;1.00;;;;;;;37.37;14.66;100831.47;4989822;28;20090;-76
2022/05/15 07:26:15;;;;;;;1.27;0.60;;;;;;;37.26;14.66;100838.28;4990029;28;20053;-77
2022/05/15 07:28:41;;;;;;;3.50;0.90;;;;;;;37.59;16.28;100826.78;4967198;28;20041;-75
2022/05/15 07:31:07;;;;;;;1.67;1.00;;;;;;;37.29;14.81;100831.03;4982231;28;20166;-78
2022/05/15 07:33:33;;;;;;;4.43;1.10;;;;;;;38.10;15.17;100822.78;4975513;28;20039;-75
2022/05/15 07:35:59;;;;;;;4.25;1.15;;;;;;;38.51;14.03;100826.44;4976513;28;20041;-77
2022/05/15 07:38:26;;;;;;;3.90;1.13;;;;;;;37.78;14.74;100828.53;4959029;28;20074;-76
2022/05/15 07:40:52;;;;;;;2.05;0.90;;;;;;;37.83;14.38;100823.56;4959282;28;20026;-75
2022/05/15 07:43:19;;;;;;;2.80;1.30;;;;;;;37.81;14.40;100824.22;4975168;28;20058;-74
2022/05/15 07:45:46;;;;;;;2.53;1.02;;;;;;;37.87;15.06;100811.88;4974877;28;20400;-74
2022/05/15 07:48:12;;;;;;;4.50;1.50;;;;;;;37.66;14.92;100821.91;4975996;28;20476;-75
2022/05/15 07:50:39;;;;;;;2.20;1.20;;;;;;;37.40;15.17;100824.19;4976093;28;20030;-75
2022/05/15 07:53:05;;;;;;;3.13;1.20;;;;;;;37.53;14.51;100819.69;4958775;28;20031;-75
2022/05/15 07:55:34;;;;;;;0.95;0.85;;;;;;;37.84;14.66;100816.97;4979437;28;20039;-76
2022/05/15 07:58:00;;;;;;;2.80;1.25;;;;;;;37.90;15.01;100816.50;4961888;28;20038;-76
2022/05/15 08:00:26;;;;;;;2.70;1.38;;;;;;;37.32;14.89;100811.09;4995690;28;20027;-77
2022/05/15 08:03:10;;;;;;;2.60;1.05;;;;;;;37.62;14.55;100818.72;4994997;28;20498;-76
2022/05/15 08:08:21;;;;;;;5.20;0.98;;;;;;;37.61;14.15;100808.25;4980673;28;20103;-76
2022/05/15 08:10:49;;;;;;;4.03;1.35;;;;;;;37.36;15.73;100812.09;4978171;28;20096;-76
2022/05/15 08:13:20;;;;;;;2.03;0.88;;;;;;;37.37;14.61;100807.69;4972421;28;20050;-75
2022/05/15 08:15:46;;;;;;;2.90;0.80;;;;;;;36.58;16.20;100818.00;4958330;28;20042;-76
2022/05/15 08:23:53;;;;;;;3.28;1.40;;;;;;;34.12;18.30;100824.41;4975283;28;20065;-79
2022/05/15 08:26:19;;;;;;;3.25;0.60;;;;;;;34.23;17.46;100825.91;4941739;28;20041;-81
2022/05/15 08:28:47;;;;;;;4.07;0.80;;;;;;;33.92;17.61;100819.25;4958254;28;20053;-80
2022/05/15 08:31:14;;;;;;;1.92;0.90;;;;;;;34.00;18.12;100817.63;4958174;28;20046;-79
2022/05/15 08:33:41;;;;;;;4.65;1.08;;;;;;;34.38;17.63;100822.50;4962814;28;20046;-78
2022/05/15 08:36:10;;;;;;;3.28;0.82;;;;;;;34.82;17.98;100818.81;4998152;28;20045;-78
2022/05/15 08:38:37;;;;;;;2.97;0.70;;;;;;;35.33;16.13;100816.94;5000402;28;20033;-78
2022/05/15 08:41:09;;;;;;;3.20;0.82;;;;;;;35.00;16.58;100814.06;5013841;28;20030;-76
2022/05/15 08:44:10;;;;;;;2.58;0.98;;;;;;;34.25;16.56;100817.94;5014336;28;20032;-75
2022/05/15 08:47:13;;;;;;;2.45;0.93;;;;;;;33.79;18.08;100812.50;5011170;28;20422;-79
2022/05/15 08:49:57;;;;;;;3.78;1.30;;;;;;;33.78;17.50;100816.88;5013888;28;20040;-77
2022/05/15 08:52:51;;;;;;;4.47;0.90;;;;;;;33.66;17.60;100818.94;4996571;28;20026;-77
2022/05/15 08:55:41;;;;;;;1.75;0.52;;;;;;;33.64;17.84;100818.03;4950755;28;20049;-79
2022/05/15 08:58:16;;;;;;;3.55;0.90;;;;;;;33.53;17.92;100818.72;5000713;28;20042;-79
2022/05/15 09:01:05;;;;;;;1.50;0.90;;;;;;;33.66;18.33;100815.97;4982037;28;20029;-78
2022/05/15 09:03:35;;;;;;;3.75;0.93;;;;;;;33.69;17.57;100826.59;4996753;28;20045;-79
2022/05/15 09:06:45;;;;;;;3.25;0.60;;;;;;;33.26;18.92;100825.69;5017990;28;20180;-78
2022/05/15 09:09:34;;;;;;;4.20;1.00;;;;;;;33.19;18.83;100828.81;5019362;28;20033;-78
2022/05/15 09:12:17;;;;;;;4.85;0.95;;;;;;;32.99;18.43;100822.19;5013396;28;20149;-76
2022/05/15 09:15:08;;;;;;;3.35;1.05;;;;;;;33.07;18.54;100822.00;5012245;28;20033;-78
2022/05/15 09:18:03;;;;;;;2.00;0.85;;;;;;;33.42;18.47;100826.84;4975409;28;20072;-78
2022/05/15 09:20:58;;;;;;;2.88;0.93;;;;;;;32.92;18.57;100826.09;4976991;28;20598;-78
2022/05/15 09:23:36;;;;;;;2.92;0.90;;;;;;;32.84;18.34;100832.19;4995155;28;20026;-78
2022/05/15 09:26:28;;;;;;;3.38;0.80;;;;;;;32.54;18.88;100818.06;5012018;28;20030;-78
2022/05/15 09:29:00;;;;;;;5.22;0.90;;;;;;;32.51;19.92;100819.31;4996512;28;20057;-78
2022/05/15 09:31:30;;;;;;;2.30;1.25;;;;;;;32.32;19.04;100825.22;5014034;28;20028;-78
2022/05/15 09:34:11;;;;;;;2.08;1.00;;;;;;;32.28;19.65;100825.69;4996201;28;20033;-76
2022/05/15 09:36:36;;;;;;;1.88;0.75;;;;;;;32.03;20.31;100822.25;5013714;28;20065;-77
2022/05/15 09:39:22;;;;;;;1.70;0.70;;;;;;;31.36;20.33;100813.25;5013982;28;20061;-78
2022/05/15 09:45:25;;;;;;;1.13;0.57;;;;;;;30.07;21.08;100815.03;4931445;28;20052;-77
2022/05/15 09:47:51;;;;;;;2.00;0.75;;;;;;;29.94;22.00;100816.16;4996452;28;20041;-77
2022/05/15 09:50:47;;;;;;;1.65;0.82;;;;;;;29.79;22.59;100822.16;5013197;28;20038;-78
2022/05/15 09:53:26;;;;;;;3.33;0.70;;;;;;;29.85;22.24;100819.75;5013266;28;20037;-78
2022/05/15 09:56:11;;;;;;;1.58;0.70;;;;;;;29.66;22.22;100823.25;4992375;28;20046;-78
2022/05/15 09:58:45;;;;;;;2.25;0.80;;;;;;;29.44;22.18;100815.44;4993204;28;20030;-76
2022/05/15 10:01:35;;;;;;;2.97;0.85;;;;;;;29.02;22.65;100822.00;4993260;28;20376;-76
2022/05/15 10:04:05;;;;;;;1.65;0.57;;;;;;;28.89;22.83;100813.50;4983372;28;20100;-77
2022/05/15 10:06:51;;;;;;;0.88;0.70;;;;;;;29.06;22.14;100816.50;4993197;28;20412;-77
2022/05/15 10:09:32;;;;;;;3.30;1.20;;;;;;;28.85;22.54;100810.22;4994533;28;20034;-76
2022/05/15 10:12:16;;;;;;;;;;;;;;;28.83;22.42;100818.81;4994285;28;20460;-76
2022/05/15 10:15:00;;;;;;;2.28;0.95;;;;;;;28.56;21.83;100815.63;4994175;28;20012;-77
2022/05/15 10:17:25;;;;;;;0.93;0.70;;;;;;;28.67;23.00;100808.50;4976540;28;20030;-77
2022/05/15 10:19:56;;;;;;;1.73;0.90;;;;;;;28.51;22.47;100804.91;4960352;28;20475;-77
2022/05/15 10:22:48;;;;;;;1.43;0.60;;;;;;;28.21;24.45;100810.91;4960314;28;20038;-77
2022/05/15 10:25:40;;;;;;;1.85;1.08;;;;;;;27.95;24.34;100805.47;4977198;28;20485;-77
2022/05/15 10:28:28;;;;;;;2.50;1.00;;;;;;;27.72;25.84;100802.63;4982343;28;20479;-77
2022/05/15 10:31:01;;;;;;;1.20;0.90;;;;;;;27.61;24.30;100797.16;4997346;28;20034;-77
2022/05/15 10:33:45;;;;;;;2.47;0.65;;;;;;;27.33;22.42;100806.94;4979996;28;20068;-77
2022/05/15 10:36:30;;;;;;;2.63;0.70;;;;;;;26.92;23.50;100808.84;4980474;28;20384;-77
2022/05/15 10:39:02;;;;;;;2.15;0.75;;;;;;;26.62;23.57;100803.69;4996931;28;20126;-76
2022/05/15 10:41:50;;;;;;;2.40;0.88;;;;;;;26.34;24.41;100803.00;4996167;28;20030;-77
2022/05/15 10:44:39;;;;;;;1.20;0.70;;;;;;;26.06;24.93;100803.81;4996438;28;20091;-77
2022/05/15 10:47:23;;;;;;;2.97;0.80;;;;;;;25.56;26.21;100802.34;5000508;28;20030;-77
2022/05/15 10:50:24;;;;;;;4.22;1.15;;;;;;;25.31;26.45;100788.13;5004553;28;20434;-77
2022/05/15 10:59:58;;;;;;;2.50;1.10;;;;;;;24.50;27.34;100785.41;5021047;28;20092;-75
2022/05/15 11:02:59;;;;;;;2.28;0.93;;;;;;;24.28;28.73;100773.47;5016956;28;20470;-76
2022/05/15 11:05:28;;;;;;;1.85;0.73;;;;;;;24.30;27.88;100782.44;5016748;28;20030;-77
2022/05/15 11:08:17;;;;;;;1.83;1.00;;;;;;;24.31;27.87;100769.44;4999383;28;20437;-76
2022/05/15 11:10:50;;;;;;;1.75;0.50;;;;;;;24.36;28.87;100772.25;4999237;28;20054;-76
2022/05/15 11:13:23;;;;;;;1.83;0.60;;;;;;;24.34;27.33;100768.31;4998882;28;20121;-77
2022/05/15 11:16:16;;;;;;;2.60;0.98;;;;;;;24.28;27.56;100764.75;5017696;28;20052;-78
2022/05/15 11:19:32;;;;;;;4.00;1.20;;;;;;;24.14;27.61;100772.69;5016738;28;20084;-78
2022/05/15 11:22:01;;;;;;;1.58;0.65;;;;;;;23.96;29.03;100762.78;4999552;28;20121;-77
2022/05/15 11:24:30;;;;;;;1.85;0.80;;;;;;;23.93;29.44;100757.28;5015954;28;20038;-78
2022/05/15 11:27:16;;;;;;;3.42;0.93;;;;;;;24.00;29.98;100750.78;5016264;28;20068;-77
2022/05/15 11:29:47;;;;;;;1.15;0.90;;;;;;;23.99;27.61;100752.13;5016335;28;20029;-78
2022/05/15 11:32:40;;;;;;;1.60;1.00;;;;;;;23.97;27.47;100758.53;4982479;28;20042;-77
2022/05/15 11:35:12;;;;;;;2.97;0.82;;;;;;;23.97;27.60;100752.72;5015638;28;20113;-78
2022/05/15 11:37:38;;;;;;;3.78;0.70;;;;;;;23.93;26.92;100740.59;5014577;28;20036;-77
2022/05/15 11:40:09;;;;;;;3.33;0.70;;;;;;;23.96;27.38;100733.69;4997105;28;20033;-77
2022/05/15 11:42:35;;;;;;;2.15;0.60;;;;;;;23.99;26.37;100746.31;4997168;28;20026;-75
2022/05/15 11:45:32;;;;;;;0.80;0.52;;;;;;;23.83;25.76;100748.22;4995198;28;20491;-77
2022/05/15 11:48:19;;;;;;;1.52;0.70;;;;;;;23.56;25.40;100737.97;4987125;28;20369;-77
2022/05/15 11:51:04;;;;;;;3.25;0.70;;;;;;;23.34;26.02;100738.38;4978409;28;20057;-76
2022/05/15 11:53:31;;;;;;;0.75;0.70;;;;;;;23.21;26.94;100742.88;4975980;28;20023;-78
2022/05/15 11:55:57;;;;;;;1.75;1.13;;;;;;;23.13;27.64;100736.16;4938521;29;20062;-75
2022/05/15 11:58:37;;;;;;;2.58;0.65;;;;;;;23.19;30.13;100736.03;4954537;28;20035;-76
2022/05/15 12:01:18;;;;;;;1.25;0.60;;;;;;;23.18;28.08;100738.19;4951767;29;20102;-77
2022/05/15 12:04:09;;;;;;;3.33;0.70;;;;;;;23.19;29.10;100731.00;4954413;29;20042;-77
2022/05/15 12:06:55;;;;;;;0.60;0.60;;;;;;;23.25;28.10;100725.88;4955682;28;20023;-77